sensor_id;sensor_type;location;lat;lon;timestamp;P1;durP1;ratioP1;P2;durP2;ratioP2
73850;SDS011;62190;51.548;5.688;2022-09-27T00:01:30;12.78;;;4.50;;
73850;SDS011;62190;51.548;5.688;2022-09-27T00:03:57;13.48;;;3.83;;
73850;SDS011;62190;51.548;5.688;2022-09-27T00:06:27;12.93;;;3.62;;
73850;SDS011;62190;51.548;5.688;2022-09-27T00:08:56;18.92;;;4.53;;
73850;SDS011;62190;51.548;5.688;2022-09-27T00:11:36;12.88;;;4.67;;
73850;SDS011;62190;51.548;5.688;2022-09-27T00:14:07;15.25;;;3.77;;
73850;SDS011;62190;51.548;5.688;2022-09-27T00:16:37;8.75;;;3.85;;
73850;SDS011;62190;51.548;5.688;2022-09-27T00:19:07;12.28;;;3.75;;
73850;SDS011;62190;51.548;5.688;2022-09-27T00:21:38;11.50;;;3.95;;
73850;SDS011;62190;51.548;5.688;2022-09-27T00:24:08;13.05;;;4.35;;
73850;SDS011;62190;51.548;5.688;2022-09-27T00:26:39;9.95;;;5.12;;
73850;SDS011;62190;51.548;5.688;2022-09-27T00:29:06;16.93;;;4.85;;
73850;SDS011;62190;51.548;5.688;2022-09-27T00:31:35;15.13;;;5.20;;
73850;SDS011;62190;51.548;5.688;2022-09-27T00:34:05;13.85;;;5.10;;
73850;SDS011;62190;51.548;5.688;2022-09-27T00:36:33;14.98;;;5.08;;
73850;SDS011;62190;51.548;5.688;2022-09-27T00:39:00;18.75;;;5.47;;
73850;SDS011;62190;51.548;5.688;2022-09-27T00:41:29;16.55;;;6.45;;
73850;SDS011;62190;51.548;5.688;2022-09-27T00:43:59;10.03;;;6.15;;
73850;SDS011;62190;51.548;5.688;2022-09-27T00:49:12;11.90;;;5.40;;
73850;SDS011;62190;51.548;5.688;2022-09-27T00:51:40;10.43;;;5.05;;
73850;SDS011;62190;51.548;5.688;2022-09-27T00:54:09;10.90;;;4.85;;
73850;SDS011;62190;51.548;5.688;2022-09-27T00:56:38;12.05;;;5.00;;
73850;SDS011;62190;51.548;5.688;2022-09-27T00:59:16;10.28;;;3.92;;
73850;SDS011;62190;51.548;5.688;2022-09-27T01:01:49;6.85;;;3.37;;
73850;SDS011;62190;51.548;5.688;2022-09-27T01:04:17;6.90;;;3.47;;
73850;SDS011;62190;51.548;5.688;2022-09-27T01:06:50;8.18;;;3.08;;
73850;SDS011;62190;51.548;5.688;2022-09-27T01:09:17;6.75;;;2.58;;
73850;SDS011;62190;51.548;5.688;2022-09-27T01:20:29;10.08;;;1.85;;
73850;SDS011;62190;51.548;5.688;2022-09-27T01:25:52;5.85;;;1.60;;
73850;SDS011;62190;51.548;5.688;2022-09-27T01:28:29;8.00;;;1.15;;
73850;SDS011;62190;51.548;5.688;2022-09-27T01:31:31;5.75;;;1.17;;
73850;SDS011;62190;51.548;5.688;2022-09-27T01:39:19;9.28;;;1.42;;
73850;SDS011;62190;51.548;5.688;2022-09-27T01:42:12;2.98;;;1.10;;
73850;SDS011;62190;51.548;5.688;2022-09-27T01:47:17;8.48;;;1.72;;
73850;SDS011;62190;51.548;5.688;2022-09-27T01:50:00;4.37;;;1.25;;
73850;SDS011;62190;51.548;5.688;2022-09-27T01:52:41;4.22;;;0.98;;
73850;SDS011;62190;51.548;5.688;2022-09-27T01:55:15;6.25;;;1.20;;
73850;SDS011;62190;51.548;5.688;2022-09-27T01:57:53;6.25;;;1.22;;
73850;SDS011;62190;51.548;5.688;2022-09-27T02:00:18;7.58;;;1.30;;
73850;SDS011;62190;51.548;5.688;2022-09-27T02:02:55;6.30;;;1.17;;
73850;SDS011;62190;51.548;5.688;2022-09-27T02:05:32;10.63;;;1.70;;
73850;SDS011;62190;51.548;5.688;2022-09-27T02:08:11;7.20;;;1.60;;
73850;SDS011;62190;51.548;5.688;2022-09-27T02:10:44;6.53;;;2.58;;
73850;SDS011;62190;51.548;5.688;2022-09-27T02:15:59;6.08;;;1.67;;
73850;SDS011;62190;51.548;5.688;2022-09-27T02:18:46;9.10;;;1.75;;
73850;SDS011;62190;51.548;5.688;2022-09-27T02:21:13;5.53;;;1.40;;
73850;SDS011;62190;51.548;5.688;2022-09-27T02:23:47;7.97;;;1.25;;
73850;SDS011;62190;51.548;5.688;2022-09-27T02:26:26;9.35;;;1.45;;
73850;SDS011;62190;51.548;5.688;2022-09-27T02:29:06;8.93;;;1.42;;
73850;SDS011;62190;51.548;5.688;2022-09-27T02:31:37;10.10;;;1.25;;
73850;SDS011;62190;51.548;5.688;2022-09-27T02:34:09;5.83;;;1.10;;
73850;SDS011;62190;51.548;5.688;2022-09-27T02:36:48;5.70;;;1.02;;
73850;SDS011;62190;51.548;5.688;2022-09-27T02:39:18;7.90;;;1.52;;
73850;SDS011;62190;51.548;5.688;2022-09-27T02:41:46;7.47;;;1.17;;
73850;SDS011;62190;51.548;5.688;2022-09-27T02:44:14;7.70;;;1.10;;
73850;SDS011;62190;51.548;5.688;2022-09-27T02:49:40;8.30;;;1.17;;
73850;SDS011;62190;51.548;5.688;2022-09-27T02:52:22;5.25;;;1.02;;
73850;SDS011;62190;51.548;5.688;2022-09-27T02:55:04;3.90;;;0.70;;
73850;SDS011;62190;51.548;5.688;2022-09-27T03:00:18;2.75;;;0.90;;
73850;SDS011;62190;51.548;5.688;2022-09-27T03:02:52;5.67;;;1.02;;
73850;SDS011;62190;51.548;5.688;2022-09-27T03:05:42;7.78;;;0.98;;
73850;SDS011;62190;51.548;5.688;2022-09-27T03:08:08;5.42;;;1.00;;
73850;SDS011;62190;51.548;5.688;2022-09-27T03:10:37;4.83;;;0.80;;
73850;SDS011;62190;51.548;5.688;2022-09-27T03:13:05;5.37;;;0.90;;
73850;SDS011;62190;51.548;5.688;2022-09-27T03:15:32;7.08;;;1.22;;
73850;SDS011;62190;51.548;5.688;2022-09-27T03:17:59;3.08;;;0.80;;
73850;SDS011;62190;51.548;5.688;2022-09-27T03:20:27;11.57;;;1.05;;
73850;SDS011;62190;51.548;5.688;2022-09-27T03:22:54;4.53;;;0.80;;
73850;SDS011;62190;51.548;5.688;2022-09-27T03:25:22;7.50;;;0.90;;
73850;SDS011;62190;51.548;5.688;2022-09-27T03:27:49;6.87;;;1.10;;
73850;SDS011;62190;51.548;5.688;2022-09-27T03:30:16;6.12;;;0.90;;
73850;SDS011;62190;51.548;5.688;2022-09-27T03:32:45;3.33;;;0.93;;
73850;SDS011;62190;51.548;5.688;2022-09-27T03:35:13;6.10;;;1.92;;
73850;SDS011;62190;51.548;5.688;2022-09-27T03:37:40;7.12;;;1.55;;
73850;SDS011;62190;51.548;5.688;2022-09-27T03:40:08;5.10;;;1.00;;
73850;SDS011;62190;51.548;5.688;2022-09-27T03:42:36;7.55;;;1.50;;
73850;SDS011;62190;51.548;5.688;2022-09-27T03:45:05;4.50;;;1.12;;
73850;SDS011;62190;51.548;5.688;2022-09-27T03:47:33;6.45;;;1.32;;
73850;SDS011;62190;51.548;5.688;2022-09-27T03:50:00;6.85;;;1.45;;
73850;SDS011;62190;51.548;5.688;2022-09-27T03:52:27;4.97;;;1.57;;
73850;SDS011;62190;51.548;5.688;2022-09-27T03:54:55;4.53;;;1.30;;
73850;SDS011;62190;51.548;5.688;2022-09-27T03:57:23;4.85;;;1.07;;
73850;SDS011;62190;51.548;5.688;2022-09-27T03:59:50;5.03;;;1.65;;
73850;SDS011;62190;51.548;5.688;2022-09-27T04:02:19;3.42;;;1.25;;
73850;SDS011;62190;51.548;5.688;2022-09-27T04:04:47;10.72;;;1.42;;
73850;SDS011;62190;51.548;5.688;2022-09-27T04:07:16;8.53;;;1.72;;
73850;SDS011;62190;51.548;5.688;2022-09-27T04:09:43;11.00;;;1.75;;
73850;SDS011;62190;51.548;5.688;2022-09-27T04:12:12;6.10;;;1.72;;
73850;SDS011;62190;51.548;5.688;2022-09-27T04:14:39;8.13;;;1.75;;
73850;SDS011;62190;51.548;5.688;2022-09-27T04:17:12;4.28;;;1.10;;
73850;SDS011;62190;51.548;5.688;2022-09-27T04:19:39;6.00;;;1.25;;
73850;SDS011;62190;51.548;5.688;2022-09-27T04:22:06;4.92;;;1.20;;
73850;SDS011;62190;51.548;5.688;2022-09-27T04:24:33;8.65;;;1.50;;
73850;SDS011;62190;51.548;5.688;2022-09-27T04:27:03;8.00;;;1.70;;
73850;SDS011;62190;51.548;5.688;2022-09-27T04:29:30;5.58;;;1.20;;
73850;SDS011;62190;51.548;5.688;2022-09-27T04:31:58;6.72;;;1.70;;
73850;SDS011;62190;51.548;5.688;2022-09-27T04:34:25;3.55;;;1.40;;
73850;SDS011;62190;51.548;5.688;2022-09-27T04:37:10;2.90;;;1.00;;
73850;SDS011;62190;51.548;5.688;2022-09-27T04:39:37;3.67;;;1.10;;
73850;SDS011;62190;51.548;5.688;2022-09-27T04:42:05;7.30;;;1.40;;
73850;SDS011;62190;51.548;5.688;2022-09-27T04:44:32;4.80;;;0.90;;
73850;SDS011;62190;51.548;5.688;2022-09-27T04:47:00;4.35;;;1.05;;
73850;SDS011;62190;51.548;5.688;2022-09-27T04:49:28;3.05;;;1.10;;
73850;SDS011;62190;51.548;5.688;2022-09-27T04:51:55;5.42;;;1.25;;
73850;SDS011;62190;51.548;5.688;2022-09-27T04:54:22;4.15;;;0.88;;
73850;SDS011;62190;51.548;5.688;2022-09-27T04:56:52;7.22;;;1.10;;
73850;SDS011;62190;51.548;5.688;2022-09-27T04:59:21;3.33;;;0.95;;
73850;SDS011;62190;51.548;5.688;2022-09-27T05:01:49;4.30;;;1.05;;
73850;SDS011;62190;51.548;5.688;2022-09-27T05:04:18;5.30;;;0.80;;
73850;SDS011;62190;51.548;5.688;2022-09-27T05:06:47;6.62;;;1.00;;
73850;SDS011;62190;51.548;5.688;2022-09-27T05:09:14;7.05;;;1.00;;
73850;SDS011;62190;51.548;5.688;2022-09-27T05:11:45;3.75;;;0.65;;
73850;SDS011;62190;51.548;5.688;2022-09-27T05:14:12;4.90;;;0.88;;
73850;SDS011;62190;51.548;5.688;2022-09-27T05:16:41;4.20;;;0.85;;
73850;SDS011;62190;51.548;5.688;2022-09-27T05:19:09;4.33;;;0.78;;
73850;SDS011;62190;51.548;5.688;2022-09-27T05:21:38;5.12;;;0.90;;
73850;SDS011;62190;51.548;5.688;2022-09-27T05:24:05;4.80;;;1.10;;
73850;SDS011;62190;51.548;5.688;2022-09-27T05:26:32;3.45;;;0.78;;
73850;SDS011;62190;51.548;5.688;2022-09-27T05:29:02;2.00;;;0.62;;
73850;SDS011;62190;51.548;5.688;2022-09-27T05:31:29;1.92;;;0.60;;
73850;SDS011;62190;51.548;5.688;2022-09-27T05:33:56;3.17;;;0.65;;
73850;SDS011;62190;51.548;5.688;2022-09-27T05:36:23;4.70;;;0.60;;
73850;SDS011;62190;51.548;5.688;2022-09-27T05:38:51;4.33;;;0.90;;
73850;SDS011;62190;51.548;5.688;2022-09-27T05:41:18;3.30;;;0.85;;
73850;SDS011;62190;51.548;5.688;2022-09-27T05:43:46;1.57;;;0.68;;
73850;SDS011;62190;51.548;5.688;2022-09-27T05:46:13;3.27;;;0.65;;
73850;SDS011;62190;51.548;5.688;2022-09-27T05:48:41;2.72;;;0.72;;
73850;SDS011;62190;51.548;5.688;2022-09-27T05:51:08;3.30;;;0.90;;
73850;SDS011;62190;51.548;5.688;2022-09-27T05:53:36;2.87;;;0.65;;
73850;SDS011;62190;51.548;5.688;2022-09-27T05:56:03;0.85;;;0.50;;
73850;SDS011;62190;51.548;5.688;2022-09-27T05:58:30;1.87;;;0.60;;
73850;SDS011;62190;51.548;5.688;2022-09-27T06:00:59;4.55;;;1.17;;
73850;SDS011;62190;51.548;5.688;2022-09-27T06:03:26;2.77;;;0.70;;
73850;SDS011;62190;51.548;5.688;2022-09-27T06:05:53;3.37;;;1.07;;
73850;SDS011;62190;51.548;5.688;2022-09-27T06:08:20;3.22;;;0.80;;
73850;SDS011;62190;51.548;5.688;2022-09-27T06:10:48;2.15;;;0.90;;
73850;SDS011;62190;51.548;5.688;2022-09-27T06:13:17;3.62;;;0.80;;
73850;SDS011;62190;51.548;5.688;2022-09-27T06:15:46;3.30;;;0.95;;
73850;SDS011;62190;51.548;5.688;2022-09-27T06:18:15;5.78;;;0.60;;
73850;SDS011;62190;51.548;5.688;2022-09-27T06:20:42;3.35;;;0.88;;
73850;SDS011;62190;51.548;5.688;2022-09-27T06:23:14;3.37;;;0.80;;
73850;SDS011;62190;51.548;5.688;2022-09-27T06:25:43;5.75;;;0.70;;
73850;SDS011;62190;51.548;5.688;2022-09-27T06:28:12;4.83;;;0.60;;
73850;SDS011;62190;51.548;5.688;2022-09-27T06:30:42;4.53;;;0.70;;
73850;SDS011;62190;51.548;5.688;2022-09-27T06:33:12;2.12;;;0.57;;
73850;SDS011;62190;51.548;5.688;2022-09-27T06:35:45;5.53;;;0.60;;
73850;SDS011;62190;51.548;5.688;2022-09-27T06:38:14;1.92;;;0.50;;
73850;SDS011;62190;51.548;5.688;2022-09-27T06:40:43;2.77;;;0.62;;
73850;SDS011;62190;51.548;5.688;2022-09-27T06:43:12;3.00;;;0.80;;
73850;SDS011;62190;51.548;5.688;2022-09-27T06:45:41;5.33;;;0.50;;
73850;SDS011;62190;51.548;5.688;2022-09-27T06:48:09;3.00;;;0.40;;
73850;SDS011;62190;51.548;5.688;2022-09-27T06:50:38;3.55;;;0.78;;
73850;SDS011;62190;51.548;5.688;2022-09-27T06:53:08;1.15;;;0.55;;
73850;SDS011;62190;51.548;5.688;2022-09-27T06:55:36;2.98;;;0.75;;
73850;SDS011;62190;51.548;5.688;2022-09-27T06:58:05;2.45;;;0.90;;
73850;SDS011;62190;51.548;5.688;2022-09-27T07:00:51;2.70;;;0.70;;
73850;SDS011;62190;51.548;5.688;2022-09-27T07:03:19;9.55;;;2.20;;
73850;SDS011;62190;51.548;5.688;2022-09-27T07:05:55;6.10;;;1.67;;
73850;SDS011;62190;51.548;5.688;2022-09-27T07:08:24;41.40;;;7.78;;
73850;SDS011;62190;51.548;5.688;2022-09-27T07:10:53;42.38;;;7.45;;
73850;SDS011;62190;51.548;5.688;2022-09-27T07:13:21;10.25;;;2.85;;
73850;SDS011;62190;51.548;5.688;2022-09-27T07:15:50;6.53;;;2.00;;
73850;SDS011;62190;51.548;5.688;2022-09-27T07:18:18;6.28;;;1.85;;
73850;SDS011;62190;51.548;5.688;2022-09-27T07:20:45;5.17;;;1.65;;
73850;SDS011;62190;51.548;5.688;2022-09-27T07:23:13;5.37;;;1.67;;
73850;SDS011;62190;51.548;5.688;2022-09-27T07:25:41;4.47;;;1.67;;
73850;SDS011;62190;51.548;5.688;2022-09-27T07:28:12;6.12;;;2.37;;
73850;SDS011;62190;51.548;5.688;2022-09-27T07:30:41;8.75;;;2.40;;
73850;SDS011;62190;51.548;5.688;2022-09-27T07:33:09;7.47;;;2.17;;
73850;SDS011;62190;51.548;5.688;2022-09-27T07:35:40;5.15;;;2.08;;
73850;SDS011;62190;51.548;5.688;2022-09-27T07:38:11;3.55;;;2.12;;
73850;SDS011;62190;51.548;5.688;2022-09-27T07:40:38;5.15;;;2.22;;
73850;SDS011;62190;51.548;5.688;2022-09-27T07:43:06;4.47;;;2.12;;
73850;SDS011;62190;51.548;5.688;2022-09-27T07:45:37;4.75;;;1.57;;
73850;SDS011;62190;51.548;5.688;2022-09-27T07:48:05;3.45;;;2.10;;
73850;SDS011;62190;51.548;5.688;2022-09-27T07:50:35;3.90;;;2.10;;
73850;SDS011;62190;51.548;5.688;2022-09-27T07:53:03;8.85;;;3.40;;
73850;SDS011;62190;51.548;5.688;2022-09-27T07:55:31;5.42;;;3.00;;
73850;SDS011;62190;51.548;5.688;2022-09-27T07:58:07;3.77;;;2.20;;
73850;SDS011;62190;51.548;5.688;2022-09-27T08:00:32;6.50;;;2.58;;
73850;SDS011;62190;51.548;5.688;2022-09-27T08:03:07;4.85;;;2.92;;
73850;SDS011;62190;51.548;5.688;2022-09-27T08:05:38;6.90;;;3.05;;
73850;SDS011;62190;51.548;5.688;2022-09-27T08:08:08;6.72;;;3.72;;
73850;SDS011;62190;51.548;5.688;2022-09-27T08:10:35;7.30;;;3.72;;
73850;SDS011;62190;51.548;5.688;2022-09-27T08:13:04;5.35;;;3.60;;
73850;SDS011;62190;51.548;5.688;2022-09-27T08:15:33;7.47;;;4.00;;
73850;SDS011;62190;51.548;5.688;2022-09-27T08:18:02;8.08;;;4.85;;
73850;SDS011;62190;51.548;5.688;2022-09-27T08:20:30;7.58;;;3.70;;
73850;SDS011;62190;51.548;5.688;2022-09-27T08:22:57;7.45;;;3.95;;
73850;SDS011;62190;51.548;5.688;2022-09-27T08:25:24;5.87;;;3.87;;
73850;SDS011;62190;51.548;5.688;2022-09-27T08:27:54;7.95;;;4.62;;
73850;SDS011;62190;51.548;5.688;2022-09-27T08:30:22;6.12;;;5.10;;
73850;SDS011;62190;51.548;5.688;2022-09-27T08:32:59;6.05;;;3.72;;
73850;SDS011;62190;51.548;5.688;2022-09-27T08:35:22;5.15;;;4.50;;
73850;SDS011;62190;51.548;5.688;2022-09-27T08:37:53;8.15;;;4.55;;
73850;SDS011;62190;51.548;5.688;2022-09-27T08:40:24;6.85;;;4.60;;
73850;SDS011;62190;51.548;5.688;2022-09-27T08:43:08;5.85;;;4.10;;
73850;SDS011;62190;51.548;5.688;2022-09-27T08:45:32;8.30;;;5.35;;
73850;SDS011;62190;51.548;5.688;2022-09-27T08:48:01;8.00;;;5.08;;
73850;SDS011;62190;51.548;5.688;2022-09-27T08:50:30;10.25;;;6.17;;
73850;SDS011;62190;51.548;5.688;2022-09-27T08:53:13;5.78;;;4.55;;
73850;SDS011;62190;51.548;5.688;2022-09-27T08:55:50;7.83;;;5.50;;
73850;SDS011;62190;51.548;5.688;2022-09-27T08:58:28;6.83;;;4.25;;
73850;SDS011;62190;51.548;5.688;2022-09-27T09:00:59;5.92;;;5.20;;
73850;SDS011;62190;51.548;5.688;2022-09-27T09:03:33;8.80;;;5.50;;
73850;SDS011;62190;51.548;5.688;2022-09-27T09:17:03;9.38;;;6.60;;
73850;SDS011;62190;51.548;5.688;2022-09-27T09:27:53;11.93;;;8.38;;
73850;SDS011;62190;51.548;5.688;2022-09-27T09:33:11;14.03;;;8.60;;
73850;SDS011;62190;51.548;5.688;2022-09-27T09:35:52;12.45;;;8.75;;
73850;SDS011;62190;51.548;5.688;2022-09-27T09:38:32;15.85;;;9.35;;
73850;SDS011;62190;51.548;5.688;2022-09-27T09:41:21;16.75;;;10.55;;
73850;SDS011;62190;51.548;5.688;2022-09-27T09:44:05;13.90;;;9.78;;
73850;SDS011;62190;51.548;5.688;2022-09-27T09:46:40;13.10;;;9.20;;
73850;SDS011;62190;51.548;5.688;2022-09-27T09:51:51;14.33;;;10.15;;
73850;SDS011;62190;51.548;5.688;2022-09-27T09:59:31;16.35;;;11.25;;
73850;SDS011;62190;51.548;5.688;2022-09-27T10:04:52;14.05;;;9.68;;
73850;SDS011;62190;51.548;5.688;2022-09-27T10:07:20;12.47;;;8.88;;
73850;SDS011;62190;51.548;5.688;2022-09-27T10:09:54;14.18;;;9.98;;
73850;SDS011;62190;51.548;5.688;2022-09-27T10:12:17;16.32;;;8.55;;
73850;SDS011;62190;51.548;5.688;2022-09-27T10:14:45;16.23;;;8.73;;
73850;SDS011;62190;51.548;5.688;2022-09-27T10:17:14;13.88;;;8.05;;
73850;SDS011;62190;51.548;5.688;2022-09-27T10:19:44;16.42;;;8.20;;
73850;SDS011;62190;51.548;5.688;2022-09-27T10:22:57;15.78;;;8.70;;
73850;SDS011;62190;51.548;5.688;2022-09-27T10:25:02;15.23;;;9.03;;
73850;SDS011;62190;51.548;5.688;2022-09-27T10:27:43;22.95;;;12.35;;
73850;SDS011;62190;51.548;5.688;2022-09-27T10:30:36;7.08;;;5.17;;
73850;SDS011;62190;51.548;5.688;2022-09-27T10:32:55;4.30;;;2.58;;
73850;SDS011;62190;51.548;5.688;2022-09-27T10:35:37;6.70;;;3.25;;
73850;SDS011;62190;51.548;5.688;2022-09-27T10:40:46;4.58;;;2.62;;
73850;SDS011;62190;51.548;5.688;2022-09-27T10:43:26;5.97;;;3.60;;
73850;SDS011;62190;51.548;5.688;2022-09-27T10:45:58;7.17;;;3.80;;
73850;SDS011;62190;51.548;5.688;2022-09-27T10:48:31;5.70;;;3.77;;
73850;SDS011;62190;51.548;5.688;2022-09-27T10:51:04;5.12;;;3.52;;
73850;SDS011;62190;51.548;5.688;2022-09-27T10:53:29;4.17;;;1.57;;
73850;SDS011;62190;51.548;5.688;2022-09-27T10:55:57;2.77;;;1.62;;
73850;SDS011;62190;51.548;5.688;2022-09-27T10:58:28;3.05;;;1.50;;
73850;SDS011;62190;51.548;5.688;2022-09-27T11:01:03;3.60;;;1.40;;
73850;SDS011;62190;51.548;5.688;2022-09-27T11:03:28;3.58;;;1.00;;
73850;SDS011;62190;51.548;5.688;2022-09-27T11:05:57;3.72;;;1.42;;
73850;SDS011;62190;51.548;5.688;2022-09-27T11:08:29;2.58;;;1.20;;
73850;SDS011;62190;51.548;5.688;2022-09-27T11:11:01;2.80;;;1.47;;
73850;SDS011;62190;51.548;5.688;2022-09-27T11:13:33;3.27;;;1.10;;
73850;SDS011;62190;51.548;5.688;2022-09-27T11:18:46;1.90;;;0.60;;
73850;SDS011;62190;51.548;5.688;2022-09-27T11:21:28;2.35;;;0.37;;
73850;SDS011;62190;51.548;5.688;2022-09-27T11:32:12;0.98;;;0.50;;
73850;SDS011;62190;51.548;5.688;2022-09-27T11:34:48;1.37;;;0.30;;
73850;SDS011;62190;51.548;5.688;2022-09-27T11:37:40;0.37;;;0.30;;
73850;SDS011;62190;51.548;5.688;2022-09-27T11:40:22;1.17;;;0.20;;
73850;SDS011;62190;51.548;5.688;2022-09-27T11:43:15;0.30;;;0.20;;
73850;SDS011;62190;51.548;5.688;2022-09-27T11:45:47;0.98;;;0.20;;
73850;SDS011;62190;51.548;5.688;2022-09-27T11:51:17;0.68;;;0.10;;
73850;SDS011;62190;51.548;5.688;2022-09-27T11:53:51;1.27;;;0.23;;
73850;SDS011;62190;51.548;5.688;2022-09-27T11:59:04;2.92;;;0.60;;
73850;SDS011;62190;51.548;5.688;2022-09-27T12:01:46;2.35;;;0.33;;
73850;SDS011;62190;51.548;5.688;2022-09-27T12:04:19;1.42;;;0.40;;
73850;SDS011;62190;51.548;5.688;2022-09-27T12:09:47;1.45;;;0.40;;
73850;SDS011;62190;51.548;5.688;2022-09-27T12:12:18;1.15;;;0.30;;
73850;SDS011;62190;51.548;5.688;2022-09-27T12:14:47;1.80;;;0.40;;
73850;SDS011;62190;51.548;5.688;2022-09-27T12:17:20;3.52;;;0.50;;
73850;SDS011;62190;51.548;5.688;2022-09-27T12:19:54;1.40;;;0.47;;
73850;SDS011;62190;51.548;5.688;2022-09-27T12:22:27;2.25;;;0.50;;
73850;SDS011;62190;51.548;5.688;2022-09-27T12:24:56;0.75;;;0.40;;
73850;SDS011;62190;51.548;5.688;2022-09-27T12:27:38;0.60;;;0.30;;
73850;SDS011;62190;51.548;5.688;2022-09-27T12:30:10;1.02;;;0.30;;
73850;SDS011;62190;51.548;5.688;2022-09-27T12:32:55;1.47;;;0.30;;
73850;SDS011;62190;51.548;5.688;2022-09-27T12:35:28;2.25;;;0.30;;
73850;SDS011;62190;51.548;5.688;2022-09-27T12:38:03;1.15;;;0.40;;
73850;SDS011;62190;51.548;5.688;2022-09-27T12:40:37;0.57;;;0.20;;
73850;SDS011;62190;51.548;5.688;2022-09-27T12:43:26;1.20;;;0.23;;
73850;SDS011;62190;51.548;5.688;2022-09-27T12:51:19;0.90;;;0.20;;
73850;SDS011;62190;51.548;5.688;2022-09-27T13:05:04;2.42;;;0.40;;
73850;SDS011;62190;51.548;5.688;2022-09-27T13:07:56;0.42;;;0.20;;
73850;SDS011;62190;51.548;5.688;2022-09-27T13:13:10;2.37;;;0.20;;
73850;SDS011;62190;51.548;5.688;2022-09-27T13:15:41;1.70;;;0.30;;
73850;SDS011;62190;51.548;5.688;2022-09-27T13:21:08;2.25;;;0.30;;
73850;SDS011;62190;51.548;5.688;2022-09-27T13:26:22;1.07;;;0.30;;
73850;SDS011;62190;51.548;5.688;2022-09-27T13:34:41;0.82;;;0.30;;
73850;SDS011;62190;51.548;5.688;2022-09-27T13:40:30;4.15;;;0.37;;
73850;SDS011;62190;51.548;5.688;2022-09-27T13:42:54;2.40;;;0.47;;
73850;SDS011;62190;51.548;5.688;2022-09-27T13:45:54;1.35;;;0.35;;
73850;SDS011;62190;51.548;5.688;2022-09-27T13:50:57;1.30;;;0.50;;
73850;SDS011;62190;51.548;5.688;2022-09-27T13:53:37;4.83;;;0.65;;
73850;SDS011;62190;51.548;5.688;2022-09-27T13:56:46;1.85;;;0.65;;
73850;SDS011;62190;51.548;5.688;2022-09-27T14:01:20;2.30;;;0.60;;
73850;SDS011;62190;51.548;5.688;2022-09-27T14:03:49;2.25;;;0.40;;
73850;SDS011;62190;51.548;5.688;2022-09-27T14:06:19;2.90;;;0.82;;
73850;SDS011;62190;51.548;5.688;2022-09-27T14:08:58;2.87;;;0.60;;
73850;SDS011;62190;51.548;5.688;2022-09-27T14:11:41;3.30;;;0.93;;
73850;SDS011;62190;51.548;5.688;2022-09-27T14:14:02;2.60;;;1.00;;
73850;SDS011;62190;51.548;5.688;2022-09-27T14:16:35;1.57;;;0.88;;
73850;SDS011;62190;51.548;5.688;2022-09-27T14:19:04;2.62;;;0.80;;
73850;SDS011;62190;51.548;5.688;2022-09-27T14:21:38;2.45;;;0.90;;
73850;SDS011;62190;51.548;5.688;2022-09-27T14:29:45;4.95;;;1.20;;
73850;SDS011;62190;51.548;5.688;2022-09-27T14:32:15;3.42;;;1.02;;
73850;SDS011;62190;51.548;5.688;2022-09-27T14:34:44;3.35;;;1.02;;
73850;SDS011;62190;51.548;5.688;2022-09-27T14:37:34;5.70;;;1.02;;
73850;SDS011;62190;51.548;5.688;2022-09-27T14:39:58;4.12;;;1.05;;
73850;SDS011;62190;51.548;5.688;2022-09-27T14:42:29;4.25;;;1.17;;
73850;SDS011;62190;51.548;5.688;2022-09-27T14:44:59;4.90;;;1.60;;
73850;SDS011;62190;51.548;5.688;2022-09-27T14:47:29;3.85;;;1.20;;
73850;SDS011;62190;51.548;5.688;2022-09-27T14:49:58;3.42;;;1.27;;
73850;SDS011;62190;51.548;5.688;2022-09-27T14:52:32;3.37;;;1.25;;
73850;SDS011;62190;51.548;5.688;2022-09-27T14:55:04;4.53;;;1.17;;
73850;SDS011;62190;51.548;5.688;2022-09-27T14:57:34;2.50;;;1.52;;
73850;SDS011;62190;51.548;5.688;2022-09-27T15:00:14;4.75;;;1.80;;
73850;SDS011;62190;51.548;5.688;2022-09-27T15:02:41;5.10;;;1.57;;
73850;SDS011;62190;51.548;5.688;2022-09-27T15:05:13;4.28;;;2.10;;
73850;SDS011;62190;51.548;5.688;2022-09-27T15:07:43;4.90;;;1.98;;
73850;SDS011;62190;51.548;5.688;2022-09-27T15:10:15;5.55;;;1.85;;
73850;SDS011;62190;51.548;5.688;2022-09-27T15:12:52;3.27;;;2.20;;
73850;SDS011;62190;51.548;5.688;2022-09-27T15:15:29;6.73;;;2.43;;
73850;SDS011;62190;51.548;5.688;2022-09-27T15:18:02;5.50;;;2.42;;
73850;SDS011;62190;51.548;5.688;2022-09-27T15:20:30;7.33;;;3.12;;
73850;SDS011;62190;51.548;5.688;2022-09-27T15:23:00;6.85;;;1.90;;
73850;SDS011;62190;51.548;5.688;2022-09-27T15:25:32;9.53;;;2.65;;
73850;SDS011;62190;51.548;5.688;2022-09-27T15:28:12;5.20;;;2.37;;
73850;SDS011;62190;51.548;5.688;2022-09-27T15:30:35;4.67;;;2.62;;
73850;SDS011;62190;51.548;5.688;2022-09-27T15:33:04;5.03;;;2.33;;
73850;SDS011;62190;51.548;5.688;2022-09-27T15:35:34;4.17;;;2.30;;
73850;SDS011;62190;51.548;5.688;2022-09-27T15:38:21;4.83;;;1.90;;
73850;SDS011;62190;51.548;5.688;2022-09-27T15:46:04;8.18;;;1.80;;
73850;SDS011;62190;51.548;5.688;2022-09-27T15:51:46;5.08;;;2.83;;
73850;SDS011;62190;51.548;5.688;2022-09-27T15:54:20;7.58;;;2.40;;
73850;SDS011;62190;51.548;5.688;2022-09-27T15:56:50;6.90;;;2.45;;
73850;SDS011;62190;51.548;5.688;2022-09-27T15:59:25;5.50;;;2.25;;
73850;SDS011;62190;51.548;5.688;2022-09-27T16:01:53;5.45;;;2.30;;
73850;SDS011;62190;51.548;5.688;2022-09-27T16:04:20;3.02;;;1.80;;
73850;SDS011;62190;51.548;5.688;2022-09-27T16:06:48;6.83;;;1.62;;
73850;SDS011;62190;51.548;5.688;2022-09-27T16:09:16;7.15;;;1.67;;
73850;SDS011;62190;51.548;5.688;2022-09-27T16:11:45;4.17;;;1.32;;
73850;SDS011;62190;51.548;5.688;2022-09-27T16:14:13;6.50;;;1.55;;
73850;SDS011;62190;51.548;5.688;2022-09-27T16:16:45;5.50;;;1.45;;
73850;SDS011;62190;51.548;5.688;2022-09-27T16:19:16;3.17;;;1.42;;
73850;SDS011;62190;51.548;5.688;2022-09-27T16:21:44;8.95;;;2.45;;
73850;SDS011;62190;51.548;5.688;2022-09-27T16:24:13;6.80;;;2.00;;
73850;SDS011;62190;51.548;5.688;2022-09-27T16:26:41;6.22;;;2.02;;
73850;SDS011;62190;51.548;5.688;2022-09-27T16:29:14;5.67;;;2.10;;
73850;SDS011;62190;51.548;5.688;2022-09-27T16:31:39;4.53;;;2.72;;
73850;SDS011;62190;51.548;5.688;2022-09-27T16:34:07;4.17;;;2.17;;
73850;SDS011;62190;51.548;5.688;2022-09-27T16:36:35;5.40;;;2.72;;
73850;SDS011;62190;51.548;5.688;2022-09-27T16:39:05;6.67;;;3.00;;
73850;SDS011;62190;51.548;5.688;2022-09-27T16:41:34;5.83;;;2.77;;
73850;SDS011;62190;51.548;5.688;2022-09-27T16:44:06;7.78;;;3.00;;
73850;SDS011;62190;51.548;5.688;2022-09-27T16:46:38;6.97;;;2.30;;
73850;SDS011;62190;51.548;5.688;2022-09-27T16:49:07;8.68;;;3.10;;
73850;SDS011;62190;51.548;5.688;2022-09-27T16:51:36;7.17;;;2.77;;
73850;SDS011;62190;51.548;5.688;2022-09-27T16:54:21;7.10;;;2.83;;
73850;SDS011;62190;51.548;5.688;2022-09-27T16:56:50;6.92;;;3.20;;
73850;SDS011;62190;51.548;5.688;2022-09-27T16:59:17;6.30;;;3.10;;
73850;SDS011;62190;51.548;5.688;2022-09-27T17:01:45;8.78;;;3.30;;
73850;SDS011;62190;51.548;5.688;2022-09-27T17:04:13;6.20;;;3.27;;
73850;SDS011;62190;51.548;5.688;2022-09-27T17:06:40;6.03;;;2.72;;
73850;SDS011;62190;51.548;5.688;2022-09-27T17:09:08;4.65;;;2.47;;
73850;SDS011;62190;51.548;5.688;2022-09-27T17:11:36;5.87;;;3.20;;
73850;SDS011;62190;51.548;5.688;2022-09-27T17:14:03;5.08;;;2.98;;
73850;SDS011;62190;51.548;5.688;2022-09-27T17:16:31;6.33;;;3.70;;
73850;SDS011;62190;51.548;5.688;2022-09-27T17:18:58;5.70;;;2.98;;
73850;SDS011;62190;51.548;5.688;2022-09-27T17:21:26;7.72;;;3.20;;
73850;SDS011;62190;51.548;5.688;2022-09-27T17:23:54;5.42;;;3.45;;
73850;SDS011;62190;51.548;5.688;2022-09-27T17:26:22;9.28;;;3.40;;
73850;SDS011;62190;51.548;5.688;2022-09-27T17:28:51;7.70;;;3.42;;